createdAt,value
2022-08-11T00:02:34.956Z,23.80
2022-08-11T00:05:08.023Z,23.80
2022-08-11T00:07:42.087Z,23.90
2022-08-11T00:10:12.376Z,23.80
2022-08-11T00:12:41.110Z,23.80
2022-08-11T00:15:10.714Z,23.80
2022-08-11T00:17:40.502Z,23.70
2022-08-11T00:20:16.233Z,23.70
2022-08-11T00:22:48.533Z,23.60
2022-08-11T00:25:20.002Z,23.60
2022-08-11T00:27:49.289Z,23.60
2022-08-11T00:30:18.313Z,23.60
2022-08-11T00:32:56.048Z,23.60
2022-08-11T00:35:54.047Z,23.60
2022-08-11T00:38:27.312Z,23.60
2022-08-11T00:41:01.469Z,23.70
2022-08-11T00:43:46.105Z,23.60
2022-08-11T00:46:19.187Z,23.60
2022-08-11T00:49:04.711Z,23.60
2022-08-11T00:52:05.500Z,23.60
2022-08-11T00:55:08.757Z,23.60
2022-08-11T00:57:57.927Z,23.60
2022-08-11T01:00:28.352Z,23.50
2022-08-11T01:03:19.604Z,23.50
2022-08-11T01:06:27.507Z,23.40
2022-08-11T01:09:23.001Z,23.50
2022-08-11T01:12:23.811Z,23.50
2022-08-11T01:15:25.283Z,23.50
2022-08-11T01:18:33.616Z,23.50
2022-08-11T01:21:17.238Z,23.40
2022-08-11T01:24:27.079Z,23.30
2022-08-11T01:27:33.018Z,23.30
2022-08-11T01:30:43.048Z,23.20
2022-08-11T01:33:55.524Z,23.10
2022-08-11T01:37:05.389Z,23.10
2022-08-11T01:40:13.752Z,23.00
2022-08-11T01:43:51.580Z,23.00
2022-08-11T01:46:26.174Z,22.90
2022-08-11T01:50:05.974Z,22.90
2022-08-11T01:52:16.109Z,22.90
2022-08-11T01:54:54.218Z,22.90
2022-08-11T01:57:34.044Z,22.80
2022-08-11T02:00:11.820Z,22.80
2022-08-11T02:02:50.052Z,22.70
2022-08-11T02:05:43.460Z,22.80
2022-08-11T02:08:21.805Z,22.70
2022-08-11T02:11:35.805Z,22.70
2022-08-11T02:14:19.199Z,22.70
2022-08-11T02:16:56.588Z,22.60
2022-08-11T02:19:51.667Z,22.60
2022-08-11T02:22:48.700Z,22.50
2022-08-11T02:25:24.977Z,22.40
2022-08-11T02:28:01.903Z,22.40
2022-08-11T02:30:38.012Z,22.30
2022-08-11T02:33:23.248Z,22.30
2022-08-11T02:36:01.707Z,22.20
2022-08-11T02:38:35.911Z,22.10
2022-08-11T02:41:31.392Z,21.90
2022-08-11T02:44:13.044Z,21.80
2022-08-11T02:46:52.587Z,21.70
2022-08-11T02:50:02.779Z,21.60
2022-08-11T02:52:45.374Z,21.40
2022-08-11T02:55:56.072Z,21.30
2022-08-11T02:58:16.141Z,21.30
2022-08-11T03:00:57.380Z,21.10
2022-08-11T03:03:33.182Z,21.00
2022-08-11T03:06:10.656Z,21.00
2022-08-11T03:08:54.417Z,20.90
2022-08-11T03:11:50.984Z,20.80
2022-08-11T03:14:44.192Z,20.70
2022-08-11T03:17:22.801Z,20.50
2022-08-11T03:20:01.121Z,20.40
2022-08-11T03:22:39.024Z,20.40
2022-08-11T03:25:13.376Z,20.30
2022-08-11T03:27:51.647Z,20.30
2022-08-11T03:30:26.564Z,20.30
2022-08-11T03:33:26.644Z,20.20
2022-08-11T03:36:06.601Z,20.30
2022-08-11T03:38:50.008Z,20.10
2022-08-11T03:42:02.060Z,20.00
2022-08-11T03:44:45.503Z,20.00
2022-08-11T03:47:27.229Z,19.90
2022-08-11T03:50:08.620Z,19.90
2022-08-11T03:52:50.540Z,19.80
2022-08-11T03:55:29.506Z,19.80
2022-08-11T03:58:41.693Z,19.80
2022-08-11T04:01:46.724Z,19.70
2022-08-11T04:04:51.669Z,19.60
2022-08-11T04:08:07.799Z,19.60
2022-08-11T04:11:02.062Z,19.50
2022-08-11T04:13:55.587Z,19.40
2022-08-11T04:16:44.343Z,19.40
2022-08-11T04:19:44.957Z,19.30
2022-08-11T04:22:46.886Z,19.30
2022-08-11T04:25:57.714Z,19.20
2022-08-11T04:28:50.341Z,19.30
2022-08-11T04:31:50.469Z,19.20
2022-08-11T04:34:38.957Z,19.20
2022-08-11T04:37:34.781Z,19.20
2022-08-11T04:40:36.109Z,19.10
2022-08-11T04:43:37.433Z,19.10
2022-08-11T04:46:57.316Z,19.00
2022-08-11T04:50:17.165Z,19.00
2022-08-11T04:53:33.200Z,18.90
2022-08-11T04:56:26.638Z,19.00
2022-08-11T04:59:45.811Z,19.00
2022-08-11T05:02:46.835Z,18.90
2022-08-11T05:05:33.303Z,19.00
2022-08-11T05:08:35.908Z,18.90
2022-08-11T05:11:44.941Z,19.00
2022-08-11T05:14:48.880Z,19.00
2022-08-11T05:17:40.505Z,19.20
2022-08-11T05:20:30.657Z,19.10
2022-08-11T05:23:23.805Z,19.20
2022-08-11T05:26:46.909Z,19.30
2022-08-11T05:29:24.626Z,19.40
2022-08-11T05:32:17.827Z,19.40
2022-08-11T05:34:53.324Z,19.40
2022-08-11T05:37:27.671Z,19.40
2022-08-11T05:40:18.379Z,19.50
2022-08-11T05:43:08.960Z,19.50
2022-08-11T05:46:02.628Z,19.60
2022-08-11T05:48:53.259Z,19.70
2022-08-11T05:51:39.687Z,19.70
2022-08-11T05:54:40.566Z,19.80
2022-08-11T05:57:10.655Z,19.90
2022-08-11T06:00:01.776Z,20.00
2022-08-11T06:02:30.439Z,20.10
2022-08-11T06:04:59.505Z,20.10
2022-08-11T06:07:30.801Z,20.20
2022-08-11T06:10:28.089Z,20.30
2022-08-11T06:12:56.835Z,20.40
2022-08-11T06:15:26.522Z,20.50
2022-08-11T06:17:56.153Z,20.50
2022-08-11T06:20:25.539Z,20.60
2022-08-11T06:22:59.690Z,20.70
2022-08-11T06:25:35.780Z,20.80
2022-08-11T06:28:06.381Z,20.90
2022-08-11T06:30:39.640Z,21.00
2022-08-11T06:33:11.923Z,21.20
2022-08-11T06:36:01.172Z,21.40
2022-08-11T06:38:48.394Z,21.40
2022-08-11T06:41:31.765Z,21.60
2022-08-11T06:44:08.368Z,21.80
2022-08-11T06:46:39.873Z,21.90
2022-08-11T06:49:29.087Z,22.00
2022-08-11T06:52:01.660Z,22.10
2022-08-11T06:54:34.020Z,22.20
2022-08-11T06:57:31.390Z,22.30
2022-08-11T07:00:28.902Z,22.40
2022-08-11T07:03:04.257Z,22.40
2022-08-11T07:05:43.659Z,22.40
2022-08-11T07:08:49.822Z,22.40
2022-08-11T07:12:06.592Z,22.50
2022-08-11T07:15:00.031Z,22.50
2022-08-11T07:17:32.307Z,22.50
2022-08-11T07:20:19.574Z,22.60
2022-08-11T07:23:10.306Z,22.60
2022-08-11T07:26:00.172Z,22.80
2022-08-11T07:28:48.191Z,23.00
2022-08-11T07:31:31.190Z,23.00
2022-08-11T07:34:17.452Z,23.10
2022-08-11T07:36:50.927Z,23.20
2022-08-11T07:39:22.098Z,23.40
2022-08-11T07:41:52.145Z,23.40
2022-08-11T07:44:20.457Z,23.60
2022-08-11T07:47:09.155Z,23.60
2022-08-11T07:49:56.098Z,23.80
2022-08-11T07:52:30.425Z,23.90
2022-08-11T07:55:00.716Z,24.10
2022-08-11T07:58:13.638Z,24.30
2022-08-11T08:00:59.216Z,24.60
2022-08-11T08:03:54.570Z,25.10
2022-08-11T08:06:41.512Z,25.50
2022-08-11T08:09:28.160Z,26.10
2022-08-11T08:12:14.181Z,26.70
2022-08-11T08:15:01.113Z,27.40
2022-08-11T08:18:20.878Z,27.80
2022-08-11T08:20:39.896Z,28.30
2022-08-11T08:23:08.673Z,28.60
2022-08-11T08:25:40.272Z,29.00
2022-08-11T08:28:11.607Z,29.40
2022-08-11T08:30:48.285Z,29.60
2022-08-11T08:33:22.349Z,30.10
2022-08-11T08:36:11.444Z,30.20
2022-08-11T08:38:41.930Z,30.40
2022-08-11T08:41:10.476Z,30.90
2022-08-11T08:43:49.005Z,30.80
2022-08-11T08:46:21.580Z,31.10
2022-08-11T08:48:50.409Z,31.30
2022-08-11T08:52:00.910Z,31.50
2022-08-11T08:54:28.141Z,31.60
2022-08-11T08:56:58.069Z,31.80
2022-08-11T08:59:44.936Z,32.20
2022-08-11T09:02:17.323Z,32.10
2022-08-11T09:04:47.026Z,31.80
2022-08-11T09:07:18.987Z,31.80
2022-08-11T09:09:49.754Z,32.20
2022-08-11T09:12:38.324Z,32.30
2022-08-11T09:15:10.443Z,32.50
2022-08-11T09:17:41.389Z,32.70
2022-08-11T09:20:13.469Z,32.80
2022-08-11T09:23:41.711Z,32.90
2022-08-11T09:26:11.079Z,33.10
2022-08-11T09:28:39.640Z,33.10
2022-08-11T09:31:07.999Z,33.40
2022-08-11T09:33:37.146Z,33.30
2022-08-11T09:36:22.257Z,33.50
2022-08-11T09:39:10.394Z,33.70
2022-08-11T09:42:23.617Z,33.90
2022-08-11T09:44:46.145Z,33.30
2022-08-11T09:47:24.146Z,33.70
2022-08-11T09:49:54.568Z,33.80
2022-08-11T09:52:24.750Z,33.90
2022-08-11T09:54:55.570Z,34.40
2022-08-11T09:57:42.402Z,34.70
2022-08-11T10:00:14.144Z,34.20
2022-08-11T10:02:44.881Z,34.30
2022-08-11T10:05:33.350Z,34.50
2022-08-11T10:08:01.915Z,34.30
2022-08-11T10:10:35.296Z,34.60
2022-08-11T10:14:31.090Z,34.60
2022-08-11T10:16:00.199Z,34.90
2022-08-11T10:18:52.742Z,34.70
2022-08-11T10:21:28.432Z,34.70
2022-08-11T10:24:16.881Z,34.90
2022-08-11T10:26:54.542Z,35.00
2022-08-11T10:29:44.313Z,35.20
2022-08-11T10:32:32.353Z,35.60
2022-08-11T10:35:02.329Z,35.40
2022-08-11T10:38:07.783Z,35.30
2022-08-11T10:40:24.499Z,35.50
2022-08-11T10:43:13.595Z,35.50
2022-08-11T10:46:01.133Z,35.40
2022-08-11T10:48:30.913Z,35.90
2022-08-11T10:51:15.092Z,36.20
2022-08-11T10:54:03.573Z,36.10
2022-08-11T10:56:52.165Z,36.20
2022-08-11T10:59:23.160Z,36.50
2022-08-11T11:01:53.460Z,36.40
2022-08-11T11:04:28.876Z,36.40
2022-08-11T11:07:06.801Z,36.10
2022-08-11T11:09:41.633Z,36.60
2022-08-11T11:12:30.008Z,36.90
2022-08-11T11:15:18.864Z,37.20
2022-08-11T11:18:01.556Z,37.40
2022-08-11T11:20:47.537Z,37.20
2022-08-11T11:23:19.942Z,37.40
2022-08-11T11:26:11.175Z,37.40
2022-08-11T11:29:08.671Z,37.20
2022-08-11T11:31:55.520Z,37.10
2022-08-11T11:34:47.874Z,36.80
2022-08-11T11:37:23.401Z,36.60
2022-08-11T11:39:51.981Z,36.70
2022-08-11T11:42:21.029Z,36.80
2022-08-11T11:44:49.440Z,36.50
2022-08-11T11:47:21.782Z,36.50
2022-08-11T11:49:50.760Z,36.30
2022-08-11T11:52:22.149Z,36.10
2022-08-11T11:54:53.346Z,36.10
2022-08-11T11:57:40.403Z,35.70
2022-08-11T12:00:33.053Z,35.80
2022-08-11T12:03:06.406Z,35.70
2022-08-11T12:05:36.882Z,35.70
2022-08-11T12:08:14.889Z,35.60
2022-08-11T12:10:46.896Z,35.40
2022-08-11T12:13:34.052Z,35.30
2022-08-11T12:16:31.092Z,35.20
2022-08-11T12:18:56.518Z,35.00
2022-08-11T12:21:25.602Z,34.80
2022-08-11T12:24:11.990Z,34.60
2022-08-11T12:27:17.239Z,34.70
2022-08-11T12:29:45.201Z,34.50
2022-08-11T12:32:13.731Z,34.20
2022-08-11T12:34:43.034Z,34.10
2022-08-11T12:37:13.771Z,33.90
2022-08-11T12:40:16.834Z,33.90
2022-08-11T12:43:38.109Z,34.00
2022-08-11T12:46:09.570Z,34.00
2022-08-11T12:49:02.555Z,33.90
2022-08-11T12:52:10.996Z,33.80
2022-08-11T12:54:47.951Z,33.80
2022-08-11T12:57:37.350Z,33.70
2022-08-11T13:00:25.738Z,33.60
2022-08-11T13:03:12.994Z,33.40
2022-08-11T13:05:45.106Z,33.40
2022-08-11T13:08:15.770Z,33.30
2022-08-11T13:11:02.558Z,33.30
2022-08-11T13:13:55.043Z,33.30
2022-08-11T13:16:21.955Z,33.30
2022-08-11T13:18:50.866Z,33.30
2022-08-11T13:21:22.112Z,33.20
2022-08-11T13:24:00.485Z,33.10
2022-08-11T13:26:47.487Z,32.90
2022-08-11T13:29:19.461Z,32.90
2022-08-11T13:31:48.064Z,32.90
2022-08-11T13:34:17.443Z,32.80
2022-08-11T13:36:46.490Z,32.70
2022-08-11T13:39:16.082Z,32.70
2022-08-11T13:41:47.703Z,32.70
2022-08-11T13:44:23.088Z,32.70
2022-08-11T13:46:53.127Z,32.70
2022-08-11T13:49:22.794Z,32.70
2022-08-11T13:51:51.354Z,32.70
2022-08-11T13:54:22.912Z,32.60
2022-08-11T13:56:54.050Z,32.50
2022-08-11T13:59:23.817Z,32.30
2022-08-11T14:02:19.727Z,32.30
2022-08-11T14:04:49.374Z,32.30
2022-08-11T14:07:23.172Z,32.30
2022-08-11T14:09:59.073Z,32.10
2022-08-11T14:12:48.054Z,32.20
2022-08-11T14:15:20.746Z,32.20
2022-08-11T14:18:01.594Z,32.20
2022-08-11T14:20:52.802Z,32.20
2022-08-11T14:23:24.729Z,32.20
2022-08-11T14:26:11.836Z,32.10
2022-08-11T14:28:44.375Z,32.10
2022-08-11T14:31:15.324Z,32.10
2022-08-11T14:33:59.748Z,32.10
2022-08-11T14:36:32.697Z,32.00
2022-08-11T14:39:04.426Z,32.00
2022-08-11T14:42:11.671Z,32.00
2022-08-11T14:45:01.191Z,31.90
2022-08-11T14:47:31.691Z,31.80
2022-08-11T14:50:10.898Z,31.70
2022-08-11T14:52:44.910Z,31.70
2022-08-11T14:55:31.593Z,31.70
2022-08-11T14:58:02.107Z,31.60
2022-08-11T15:00:31.426Z,31.70
2022-08-11T15:03:13.140Z,31.70
2022-08-11T15:05:56.145Z,31.70
2022-08-11T15:08:42.661Z,31.60
2022-08-11T15:11:32.246Z,31.50
2022-08-11T15:14:03.228Z,31.40
2022-08-11T15:16:49.082Z,31.40
2022-08-11T15:19:20.955Z,31.40
2022-08-11T15:22:06.519Z,31.40
2022-08-11T15:24:36.312Z,31.40
2022-08-11T15:27:23.620Z,31.40
2022-08-11T15:30:20.941Z,31.50
2022-08-11T15:33:17.779Z,31.50
2022-08-11T15:36:03.130Z,31.50
2022-08-11T15:38:36.822Z,31.50
2022-08-11T15:41:24.000Z,31.60
2022-08-11T15:44:12.649Z,31.60
2022-08-11T15:46:45.523Z,31.50
2022-08-11T15:49:21.943Z,31.50
2022-08-11T15:52:01.861Z,31.50
2022-08-11T15:54:33.170Z,31.50
2022-08-11T15:57:03.265Z,31.50
2022-08-11T15:59:52.953Z,31.50
2022-08-11T16:02:43.869Z,31.50
2022-08-11T16:05:44.960Z,31.50
2022-08-11T16:08:06.079Z,31.50
2022-08-11T16:10:35.336Z,31.40
2022-08-11T16:13:21.919Z,31.40
2022-08-11T16:16:11.528Z,31.40
2022-08-11T16:18:47.199Z,31.30
2022-08-11T16:21:34.022Z,31.30
2022-08-11T16:24:07.495Z,31.20
2022-08-11T16:27:08.420Z,31.20
2022-08-11T16:29:29.397Z,31.20
2022-08-11T16:32:15.485Z,31.20
2022-08-11T16:35:04.047Z,31.20
2022-08-11T16:37:53.091Z,31.10
2022-08-11T16:40:22.646Z,31.10
2022-08-11T16:43:11.544Z,31.10
2022-08-11T16:45:59.459Z,31.10
2022-08-11T16:48:35.021Z,31.00
2022-08-11T16:51:07.653Z,31.10
2022-08-11T16:54:00.131Z,31.10
2022-08-11T16:56:31.184Z,31.20
2022-08-11T16:59:17.621Z,31.10
2022-08-11T17:01:50.153Z,31.00
2022-08-11T17:04:43.325Z,30.90
2022-08-11T17:07:42.365Z,30.80
2022-08-11T17:10:51.172Z,30.80
2022-08-11T17:13:28.163Z,30.70
2022-08-11T17:16:11.967Z,30.80
2022-08-11T17:18:46.703Z,30.90
2022-08-11T17:21:18.964Z,30.90
2022-08-11T17:23:54.793Z,30.90
2022-08-11T17:26:51.455Z,30.70
2022-08-11T17:29:28.669Z,30.60
2022-08-11T17:32:15.666Z,30.40
2022-08-11T17:35:03.010Z,30.40
2022-08-11T17:37:33.635Z,30.20
2022-08-11T17:40:05.839Z,30.20
2022-08-11T17:42:52.049Z,30.10
2022-08-11T17:45:38.578Z,30.00
2022-08-11T17:48:25.180Z,30.00
2022-08-11T17:50:54.506Z,29.90
2022-08-11T17:53:40.709Z,29.80
2022-08-11T17:56:51.095Z,29.80
2022-08-11T17:59:33.506Z,29.80
2022-08-11T18:02:28.159Z,29.80
2022-08-11T18:05:07.436Z,29.70
2022-08-11T18:08:00.186Z,29.60
2022-08-11T18:10:48.494Z,29.60
2022-08-11T18:13:37.359Z,29.50
2022-08-11T18:16:23.215Z,29.40
2022-08-11T18:19:08.696Z,29.40
2022-08-11T18:22:03.591Z,29.20
2022-08-11T18:25:05.695Z,29.10
2022-08-11T18:27:53.230Z,29.00
2022-08-11T18:30:40.579Z,29.00
2022-08-11T18:36:40.501Z,28.90
2022-08-11T18:39:30.749Z,28.80
2022-08-11T18:42:29.140Z,28.70
2022-08-11T18:45:18.504Z,28.70
2022-08-11T18:48:11.644Z,28.60
2022-08-11T18:51:31.698Z,28.50
2022-08-11T18:54:11.291Z,28.40
2022-08-11T18:56:56.730Z,28.40
2022-08-11T18:59:45.212Z,28.30
2022-08-11T19:02:48.265Z,28.40
2022-08-11T19:06:08.362Z,28.30
2022-08-11T19:08:48.948Z,28.20
2022-08-11T19:11:42.496Z,28.10
2022-08-11T19:14:30.489Z,28.10
2022-08-11T19:17:44.172Z,28.00
2022-08-11T19:20:28.921Z,27.90
2022-08-11T19:23:17.189Z,27.90
2022-08-11T19:26:03.711Z,27.80
2022-08-11T19:28:50.534Z,27.80
2022-08-11T19:31:41.098Z,27.70
2022-08-11T19:34:31.392Z,27.60
2022-08-11T19:37:19.591Z,27.50
2022-08-11T19:40:11.712Z,27.40
2022-08-11T19:42:58.826Z,27.40
2022-08-11T19:45:44.811Z,27.40
2022-08-11T19:48:39.533Z,27.30
2022-08-11T19:51:26.456Z,27.20
2022-08-11T19:54:12.299Z,27.20
2022-08-11T19:57:00.111Z,27.20
2022-08-11T19:59:47.039Z,27.10
2022-08-11T20:02:32.640Z,27.10
2022-08-11T20:05:18.143Z,27.00
2022-08-11T20:08:05.197Z,26.90
2022-08-11T20:10:52.936Z,26.90
2022-08-11T20:13:43.876Z,27.00
2022-08-11T20:16:30.819Z,27.00
2022-08-11T20:19:17.792Z,26.90
2022-08-11T20:22:09.735Z,26.90
2022-08-11T20:24:56.916Z,26.80
2022-08-11T20:27:43.442Z,26.80
2022-08-11T20:30:31.614Z,26.80
2022-08-11T20:33:17.995Z,26.70
2022-08-11T20:36:08.150Z,26.70
2022-08-11T20:38:56.725Z,26.70
2022-08-11T20:41:58.967Z,26.70
2022-08-11T20:44:47.583Z,26.70
2022-08-11T20:47:56.332Z,26.70
2022-08-11T20:50:45.944Z,26.60
2022-08-11T20:53:35.958Z,26.50
2022-08-11T20:56:39.809Z,26.50
2022-08-11T20:59:27.205Z,26.40
2022-08-11T21:02:14.648Z,26.50
2022-08-11T21:05:01.320Z,26.50
2022-08-11T21:07:56.911Z,26.50
2022-08-11T21:10:46.791Z,26.40
2022-08-11T21:13:34.383Z,26.50
2022-08-11T21:16:25.968Z,26.40
2022-08-11T21:19:18.132Z,26.40
2022-08-11T21:22:06.238Z,26.30
2022-08-11T21:24:52.732Z,26.30
2022-08-11T21:27:40.396Z,26.20
2022-08-11T21:30:27.198Z,26.30
2022-08-11T21:33:13.501Z,26.30
2022-08-11T21:36:00.907Z,26.20
2022-08-11T21:38:49.756Z,26.20
2022-08-11T21:41:36.778Z,26.20
2022-08-11T21:44:24.790Z,26.10
2022-08-11T21:47:11.761Z,26.00
2022-08-11T21:49:59.235Z,26.10
2022-08-11T21:52:45.632Z,26.10
2022-08-11T21:55:33.502Z,26.00
2022-08-11T21:58:20.046Z,26.00
2022-08-11T22:01:06.237Z,26.00
2022-08-11T22:03:51.557Z,25.90
2022-08-11T22:06:38.431Z,25.90
2022-08-11T22:09:23.980Z,25.90
2022-08-11T22:12:34.017Z,25.80
2022-08-11T22:15:17.766Z,25.80
2022-08-11T22:18:03.188Z,25.80
2022-08-11T22:20:51.002Z,25.80
2022-08-11T22:23:38.018Z,25.80
2022-08-11T22:26:25.368Z,25.80
2022-08-11T22:29:12.569Z,25.80
2022-08-11T22:31:59.056Z,25.80
2022-08-11T22:34:52.966Z,25.70
2022-08-11T22:37:39.434Z,25.60
2022-08-11T22:40:26.687Z,25.70
2022-08-11T22:43:12.321Z,25.50
2022-08-11T22:45:59.338Z,25.50
2022-08-11T22:48:47.293Z,25.50
2022-08-11T22:51:34.309Z,25.40
2022-08-11T22:54:21.201Z,25.40
2022-08-11T22:57:07.595Z,25.30
2022-08-11T22:59:55.168Z,25.30
2022-08-11T23:02:43.840Z,25.20
2022-08-11T23:05:29.535Z,25.10
2022-08-11T23:08:15.953Z,25.00
2022-08-11T23:11:02.437Z,24.90
2022-08-11T23:13:48.329Z,24.80
2022-08-11T23:16:34.351Z,24.60
2022-08-11T23:20:08.228Z,24.40
2022-08-11T23:22:43.754Z,24.40
2022-08-11T23:25:32.891Z,24.40
2022-08-11T23:28:20.363Z,24.40
2022-08-11T23:31:09.409Z,24.60
2022-08-11T23:33:58.417Z,24.60
2022-08-11T23:36:46.848Z,24.60
2022-08-11T23:39:33.103Z,24.50
2022-08-11T23:42:18.420Z,24.40
2022-08-11T23:45:06.502Z,24.20
2022-08-11T23:47:56.603Z,24.10
2022-08-11T23:50:42.452Z,23.90
2022-08-11T23:53:31.072Z,23.70
2022-08-11T23:56:17.084Z,23.60
2022-08-11T23:59:08.017Z,23.50
